Etusivu
METAR-TAF:

METAR-TAF

Lentoasemat :

Pensacola Regional Airport

Pensacola, Florida, Yhdysvallat

Leveyspiiri: 30-28-41N, Pituuspiiri: 087-11-13W, korkeus merenpinnasta: 36 m

Tämänhetkinen sää

Tämä raportti tehtiin 44 minuuttia sitten, kello 01.53 UTC
Tuuli 4 kn lännestä
Lämpötila 12°C
Kosteus 67%
Ilmanpaine 1012 hPa
Näkyvyys: 16.1 km
selkeää

METAR: KPNS 190153Z 28004KT 10SM CLR 12/06 A2988 RMK AO2 SLP119 T01220061

Aika: 20:37 (02:37 UTC)

Sääennuste

Tämä raportti tehtiin 3 tuntia ja 10 minuuttia sitten, kello 23.27 UTC
Ennuste voimassa 19. päivästä klo 00 UTC - 19. päivään klo 24 UTC
Tuuli 5 kn luoteesta
Näkyvyys: 10 km
Hajanaisia pilviä 25000 ft:n korkeudessa
From 19. päivästä klo 1700 UTC
Tuuli 8 kn lännestä
Näkyvyys: 10 km
selkeää

TAF: KPNS 182327Z 1900/1924 31005KT P6SM SCT250 FM191700 26008KT P6SM SKC

Säähavainnot ja -ennusteet yli 4000 lentoasemalta (METAR- ja TAF-raportit).

Käytössä olevat sääasemat on merkitty karttaan keltaisilla ja punaisilla pisteillä.

Aseta hiiri pisteen päälle nähdäksesi sääaseman nimen.

Klikkaa sitten nähdäksesi säähavainnot ja -ennusteet.

Kartan vaihtaminen: klikkaa mustalla rastilla varustettuja vihreitä pisteitä, niin voit zoomata sisään; viivalla varustettua vihreää pistettä, niin voit zoomata ulos tai vihreitä nuolia, niin pääset viereisille kartoille.


METAR-TAF: